• Join FlightAware (Why Join?)
  • Login
  • US Flag 
03:11PM EDT


 

Airport Tracker/Info


-or-


 

Live Flight TrackerFlight Track Log ✈ UAL5915 ✈ 14-Apr-2013 ✈ KTUL - KIAD

Flight Track Log - Related Links

Times and Time Zones

All times are in EDT time to prevent confusion due to time zone crossing. See the UAL5915 flight status page for this flight to view local times or setup timezone preferences in your user account.

Time Position Orientation Groundspeed Altitude Reporting Facility
EDT Latitude Longitude Course Direction KTS MPH feet Rate Location/Type
01:44PM 36.1953 -95.8633 88° East 161 185 1,500  Level Kansas City Center
01:44PM 36.1958 -95.8453 88° East 168 193 2,200 2,100 Climbing Kansas City Center
01:45PM 36.1953 -95.7650 90° East 253 291 4,300 2,160 Climbing Kansas City Center
01:46PM 36.1897 -95.6914 95° East 261 300 6,400 2,280 Climbing Kansas City Center
01:47PM 36.1661 -95.5972 107° East 284 327 8,800 2,220 Climbing Kansas City Center
01:48PM 36.1372 -95.4747 106° East 306 352 11,000 1,320 Climbing Kansas City Center
01:49PM 36.1072 -95.3497 107° East 368 423 11,600 1,080 Climbing Kansas City Center
01:50PM 36.0764 -95.2169 106° East 397 457 13,300 1,620 Climbing Kansas City Center
01:51PM 36.0767 -95.0769 90° East 406 467 15,000 1,620 Climbing Kansas City Center
01:52PM 36.0819 -94.9361 87° East 409 471 16,600 1,680 Climbing Kansas City Center
01:53PM 36.0883 -94.7950 87° East 411 473 18,500 1,620 Climbing Kansas City Center
01:54PM 36.0964 -94.6183 87° East 409 471 20,000 1,380 Climbing Memphis Center
01:55PM 36.1033 -94.4672 87° East 422 486 21,300 1,260 Climbing Memphis Center
01:56PM 36.1064 -94.3158 89° East 435 501 22,600 1,260 Climbing Memphis Center
01:57PM 36.1133 -94.1594 87° East 440 506 23,900 1,140 Climbing Memphis Center
01:58PM 36.1153 -94.0208 89° East 440 506 24,900 1,140 Climbing Memphis Center
01:59PM 36.1197 -93.8642 88° East 440 506 26,200 1,260 Climbing Memphis Center
02:00PM 36.1242 -93.7103 88° East 440 506 27,500 1,200 Climbing Memphis Center
02:01PM 36.1342 -93.5592 85° East 440 506 28,700 1,200 Climbing Memphis Center
02:02PM 36.1714 -93.4139 72° East 440 506 30,000 1,140 Climbing Memphis Center
02:03PM 36.2061 -93.2636 74° East 440 506 31,000 900 Climbing Memphis Center
02:04PM 36.2450 -93.1131 72° East 450 518 31,900 900 Climbing Memphis Center
02:05PM 36.2817 -92.9597 73° East 455 524 32,800 540 Climbing Memphis Center
02:06PM 36.3161 -92.8039 75° East 455 524 33,000 60 Climbing Memphis Center
02:07PM 36.3544 -92.6425 74° East 462 532 33,000  Level Memphis Center
02:08PM 36.3928 -92.4814 73° East 474 545 33,000  Level Memphis Center
02:09PM 36.4308 -92.3197 74° East 479 551 33,000  Level Memphis Center
02:10PM 36.4686 -92.1633 73° East 474 545 33,000  Level Memphis Center
02:11PM 36.5064 -91.9964 74° East 469 540 33,000  Level Memphis Center
02:12PM 36.5419 -91.8369 74° East 469 540 33,000  Level Memphis Center
02:13PM 36.5769 -91.6800 74° East 469 540 33,000  Level Memphis Center
02:14PM 36.6119 -91.5228 74° East 474 545 33,000  Level Memphis Center
02:15PM 36.6486 -91.3631 74° East 474 545 33,000  Level Memphis Center
02:16PM 36.6831 -91.2031 75° East 474 545 33,000  Level Memphis Center
02:17PM 36.7175 -91.0428 75° East 474 545 33,000  Level Memphis Center
02:18PM 36.7536 -90.8825 74° East 474 545 33,000  Level Memphis Center
02:19PM 36.7897 -90.7197 74° East 474 545 33,000  Level Memphis Center
02:20PM 36.8256 -90.5564 75° East 474 545 33,000  Level Memphis Center
02:21PM 36.8589 -90.3906 76° East 480 552 33,000  Level Memphis Center
02:22PM 36.8964 -90.2219 74° East 486 559 33,000  Level Memphis Center
02:23PM 36.9275 -90.0767 75° East 491 565 33,000  Level Memphis Center
02:24PM 36.9644 -89.9050 75° East 491 565 33,000  Level Memphis Center
02:25PM 36.9969 -89.7464 76° East 486 559 33,000  Level Memphis Center
02:26PM 37.0294 -89.5903 75° East 473 544 33,000  Level Memphis Center
02:27PM 37.0639 -89.4236 75° East 479 551 33,000  Level Memphis Center
02:28PM 37.1000 -89.2542 75° East 484 557 33,000  Level Memphis Center
02:29PM 37.1336 -89.0794 76° East 495 570 33,000  Level Memphis Center
02:30PM 37.1506 -88.9072 83° East 501 577 33,000  Level Memphis Center
02:31PM 37.1631 -88.7381 85° East 501 577 33,000  Level Memphis Center
02:32PM 37.1753 -88.5658 85° East 501 577 33,000  Level Memphis Center
02:33PM 37.1853 -88.4042 86° East 486 559 33,000  Level Memphis Center
02:34PM 37.1992 -88.2372 84° East 480 552 33,000  Level Memphis Center
02:35PM 37.2083 -88.0547 86° East 480 552 33,000  Level Memphis Center
02:37PM 37.2683 -87.7356 77° East 478 550 33,000  Level Indianapolis Center
02:38PM 37.3022 -87.5706 75° East 483 556 33,000  Level Indianapolis Center
02:39PM 37.3369 -87.4000 76° East 495 570 33,000  Level Indianapolis Center
02:40PM 37.3733 -87.2256 75° East 506 582 33,000  Level Indianapolis Center
02:41PM 37.4094 -87.0489 76° East 514 592 33,000  Level Indianapolis Center
02:42PM 37.4447 -86.8722 76° East 515 593 33,000  Level Indianapolis Center
02:43PM 37.4808 -86.6953 76° East 515 593 33,000  Level Indianapolis Center
02:44PM 37.5211 -86.4892 76° East 515 593 33,000  Level Indianapolis Center
02:45PM 37.5564 -86.3114 76° East 517 595 33,000  Level Indianapolis Center
02:46PM 37.5922 -86.1272 76° East 515 593 33,000  Level Indianapolis Center
02:47PM 37.6264 -85.9506 76° East 519 597 33,000  Level Indianapolis Center
02:48PM 37.6597 -85.7742 77° East 517 595 33,000  Level Indianapolis Center
02:49PM 37.6942 -85.5975 76° East 517 595 33,000  Level Indianapolis Center
02:50PM 37.7292 -85.4119 77° East 517 595 33,000  Level Indianapolis Center
02:52PM 37.7617 -85.2350 77° East 519 597 33,000  Level Indianapolis Center
02:53PM 37.7936 -85.0578 77° East 518 596 33,000  Level Indianapolis Center
02:54PM 37.8325 -84.8506 77° East 518 596 33,000  Level Indianapolis Center
02:55PM 37.8639 -84.6719 77° East 520 598 33,000  Level Indianapolis Center
02:56PM 37.8969 -84.4925 77° East 522 601 33,000  Level Indianapolis Center
02:57PM 37.9294 -84.3136 77° East 522 601 33,000  Level Indianapolis Center
02:58PM 37.9611 -84.1325 77° East 525 604 33,000  Level Indianapolis Center
02:59PM 37.9928 -83.9508 77° East 527 606 33,000  Level Indianapolis Center
03:00PM 38.0300 -83.7350 78° East 536 617 33,000  Level Indianapolis Center
03:01PM 38.0608 -83.5519 78° East 530 610 33,000  Level Indianapolis Center
03:02PM 38.0922 -83.3694 78° East 527 606 33,000  Level Indianapolis Center
03:03PM 38.1219 -83.1847 78° East 530 610 33,000  Level Indianapolis Center
03:04PM 38.1536 -83.0000 78° East 533 613 33,000  Level Indianapolis Center
03:05PM 38.1828 -82.8142 79° East 533 613 33,000  Level Indianapolis Center
03:06PM 38.2189 -82.5994 78° East 532 612 33,000  Level Indianapolis Center
03:07PM 38.2442 -82.4342 79° East 535 616 33,000  Level Indianapolis Center
03:08PM 38.2747 -82.2478 78° East 537 618 33,000  Level Indianapolis Center
03:09PM 38.3094 -82.0250 79° East 538 619 33,000  Level Indianapolis Center
03:10PM 38.3500 -81.8472 74° East 525 604 33,000  Level Indianapolis Center
03:11PM 38.4031 -81.6789 68° East 516 594 33,000  Level Indianapolis Center
03:12PM 38.4539 -81.5119 69° East 512 589 33,000  Level Indianapolis Center
03:13PM 38.5058 -81.3458 68° East 513 590 33,000  Level Indianapolis Center
03:14PM 38.5136 -81.1392 87° East 499 574 33,000  Level Indianapolis Center
03:15PM 38.4447 -80.9958 122° Southeast 472 543 33,000  Level Indianapolis Center
03:16PM 38.3667 -80.8592 126° Southeast 474 545 33,000  Level Indianapolis Center
03:17PM 38.3333 -80.7986 125° Southeast 472 543 33,000  Level Washington Center
03:18PM 38.3075 -80.6275 101° East 475 547 33,000  Level Washington Center
03:19PM 38.3286 -80.4647 81° East 498 573 33,000  Level Washington Center
03:20PM 38.3650 -80.2869 75° East 498 573 33,000  Level Washington Center
03:21PM 38.3989 -80.1117 76° East 503 579 33,000 -600 Level Washington Center
03:22PM 38.4347 -79.9308 76° East 508 585 31,800 -2,700 Descending Washington Center
03:23PM 38.4686 -79.7419 77° East 508 585 27,700 -3,540 Descending Washington Center
03:24PM 38.4992 -79.5764 77° East 490 564 24,800 -1,860 Descending Washington Center
03:25PM 38.5294 -79.4161 76° East 474 545 24,000 -720 Descending Washington Center
03:26PM 38.5572 -79.2556 77° East 466 536 23,400 -1,260 Descending Washington Center
03:27PM 38.5764 -79.1053 81° East 453 521 21,500 -2,100 Descending Washington Center
03:28PM 38.6014 -78.9603 78° East 429 494 19,300 -2,040 Descending Washington Center
03:29PM 38.6239 -78.8231 78° East 406 467 17,500 -1,920 Descending Washington Center
03:30PM 38.6544 -78.6914 73° East 388 447 15,500 -2,040 Descending Washington Center
03:31PM 38.6847 -78.5650 73° East 378 435 13,400 -2,100 Descending Washington Center
03:32PM 38.7150 -78.4411 73° East 373 429 11,400 -1,620 Descending Washington Center
03:33PM 38.7550 -78.3364 64° Northeast 348 400 10,300 -1,200 Descending Washington Center
03:34PM 38.8150 -78.2586 45° Northeast 311 358 9,000 -1,080 Descending Washington Center
03:35PM 38.8628 -78.1750 54° Northeast 303 349 8,200 -1,020 Descending Washington Center
03:36PM 38.8900 -78.0692 72° East 298 343 7,000 -960 Descending Washington Center
03:37PM 38.9128 -77.9686 74° East 298 343 6,300 -600 Descending Washington Center
03:38PM 38.9378 -77.8733 71° East 286 329 5,900 -180 Descending Washington Center
03:39PM 38.9603 -77.7753 74° East 286 329 6,000  Climbing Washington Center
03:40PM 38.9578 -77.6844 92° East 275 316 6,000  Level Washington Center
03:41PM 38.9000 -77.6000 131° Southeast 263 303 6,000 -240 Level Potomac TRACON
03:42PM 38.8333 -77.5667 159° South 240 276 5,600 -960 Descending Potomac TRACON
03:43PM 38.7667 -77.5667 180° South 238 274 4,100 -1,140 Descending Potomac TRACON
03:44PM 38.7833 -77.5000 72° East 192 221 3,400 -600 Descending Potomac TRACON
03:45PM 38.8167 -77.4667 38° Northeast 180 207 3,000 -840 Descending Potomac TRACON
03:46PM 38.8667 -77.4667 360° North 176 203 1,900 -1,080 Descending Potomac TRACON
03:47PM 38.9000 -77.4667 360° North 144 166 1,000 -900 Descending Potomac TRACON
03:49PM 38.9474 -77.4599 North  Level Estimated
03:56PM 38.9474 -77.4599 159° South  Level Estimated